createdAt,value
2022-09-18T00:01:46.302Z,1.27
2022-09-18T00:06:48.084Z,1.20
2022-09-18T00:11:51.173Z,1.10
2022-09-18T00:16:53.149Z,1.10
2022-09-18T00:21:55.331Z,1.00
2022-09-18T00:26:57.170Z,1.20
2022-09-18T00:31:59.887Z,1.08
2022-09-18T00:37:01.619Z,1.20
2022-09-18T00:42:03.534Z,1.33
2022-09-18T00:47:10.863Z,1.33
2022-09-18T00:52:15.496Z,1.37
2022-09-18T00:57:24.913Z,1.45
2022-09-18T01:02:26.801Z,1.67
2022-09-18T01:07:52.943Z,1.38
2022-09-18T01:13:22.342Z,1.52
2022-09-18T01:18:36.357Z,1.40
2022-09-18T01:24:26.348Z,1.35
2022-09-18T01:29:55.263Z,1.73
2022-09-18T01:35:40.423Z,1.60
2022-09-18T01:41:00.286Z,1.40
2022-09-18T01:46:08.465Z,1.70
2022-09-18T01:51:36.901Z,1.60
2022-09-18T01:56:57.133Z,1.30
2022-09-18T02:02:05.079Z,1.38
2022-09-18T02:07:28.730Z,1.55
2022-09-18T02:12:34.382Z,1.38
2022-09-18T02:17:43.996Z,1.50
2022-09-18T02:22:47.476Z,1.20
2022-09-18T02:27:50.620Z,1.20
2022-09-18T02:32:56.686Z,1.73
2022-09-18T02:38:11.533Z,1.38
2022-09-18T02:43:37.922Z,1.85
2022-09-18T02:49:25.147Z,1.58
2022-09-18T02:54:32.665Z,1.60
2022-09-18T02:59:54.829Z,1.45
2022-09-18T03:04:56.728Z,1.77
2022-09-18T03:10:11.510Z,1.60
2022-09-18T03:15:13.439Z,2.05
2022-09-18T03:20:15.360Z,1.35
2022-09-18T03:25:17.167Z,1.55
2022-09-18T03:30:18.913Z,1.73
2022-09-18T03:35:20.795Z,1.73
2022-09-18T03:40:23.322Z,2.15
2022-09-18T03:45:25.295Z,1.50
2022-09-18T03:50:27.974Z,2.20
2022-09-18T03:55:30.962Z,1.90
2022-09-18T04:00:53.018Z,2.05
2022-09-18T04:06:05.554Z,2.00
2022-09-18T04:11:42.915Z,2.20
2022-09-18T04:16:44.761Z,3.00
2022-09-18T04:21:46.610Z,2.80
2022-09-18T04:26:50.033Z,2.35
2022-09-18T04:31:54.728Z,2.38
2022-09-18T04:36:58.075Z,1.85
2022-09-18T04:42:02.705Z,2.17
2022-09-18T04:47:06.095Z,2.58
2022-09-18T04:52:07.991Z,2.30
2022-09-18T04:57:09.766Z,2.50
2022-09-18T05:02:11.746Z,2.80
2022-09-18T05:07:14.003Z,2.90
2022-09-18T05:12:16.487Z,2.42
2022-09-18T05:17:20.112Z,2.40
2022-09-18T05:22:35.112Z,2.70
2022-09-18T05:27:38.722Z,2.65
2022-09-18T05:32:42.151Z,2.20
2022-09-18T05:37:43.927Z,2.88
2022-09-18T05:42:48.007Z,2.55
2022-09-18T05:47:59.312Z,2.67
2022-09-18T05:53:10.835Z,2.22
2022-09-18T05:58:34.348Z,2.30
2022-09-18T06:03:37.018Z,2.47
2022-09-18T06:08:38.965Z,2.65
2022-09-18T06:13:41.199Z,2.53
2022-09-18T06:18:42.981Z,2.60
2022-09-18T06:23:44.724Z,2.63
2022-09-18T06:28:54.279Z,2.80
2022-09-18T06:33:56.993Z,2.78
2022-09-18T06:38:59.189Z,2.65
2022-09-18T06:44:01.576Z,2.92
2022-09-18T06:49:09.707Z,2.63
2022-09-18T06:54:17.604Z,2.60
2022-09-18T06:59:19.495Z,2.55
2022-09-18T07:04:21.358Z,2.97
2022-09-18T07:09:23.210Z,3.10
2022-09-18T07:14:27.921Z,2.72
2022-09-18T07:19:36.903Z,3.80
2022-09-18T07:24:39.256Z,2.95
2022-09-18T07:29:41.909Z,3.60
2022-09-18T07:34:45.328Z,3.10
2022-09-18T07:39:53.255Z,2.88
2022-09-18T07:45:13.771Z,2.90
2022-09-18T07:50:16.830Z,3.05
2022-09-18T07:55:20.627Z,3.10
2022-09-18T08:00:22.686Z,3.15
2022-09-18T08:05:26.103Z,2.97
2022-09-18T08:10:34.704Z,2.92
2022-09-18T08:15:59.624Z,3.92
2022-09-18T08:21:21.383Z,3.08
2022-09-18T08:26:26.328Z,2.90
2022-09-18T08:31:29.390Z,2.60
2022-09-18T08:36:32.656Z,2.20
2022-09-18T08:42:05.873Z,2.60
2022-09-18T08:47:15.049Z,3.70
2022-09-18T08:52:20.956Z,2.67
2022-09-18T08:57:41.842Z,2.80
2022-09-18T09:02:52.040Z,2.92
2022-09-18T09:08:12.926Z,2.85
2022-09-18T09:13:28.083Z,3.25
2022-09-18T09:18:48.908Z,3.28
2022-09-18T09:24:13.404Z,2.70
2022-09-18T09:29:42.271Z,2.90
2022-09-18T09:35:23.183Z,2.53
2022-09-18T09:40:47.553Z,2.80
2022-09-18T09:45:52.295Z,2.75
2022-09-18T09:51:14.074Z,3.38
2022-09-18T09:56:57.646Z,2.50
2022-09-18T10:02:14.424Z,2.30
2022-09-18T10:07:28.489Z,1.98
2022-09-18T10:12:53.334Z,3.75
2022-09-18T10:17:59.623Z,2.80
2022-09-18T10:23:39.575Z,1.63
2022-09-18T10:28:42.382Z,1.88
2022-09-18T10:33:46.749Z,1.77
2022-09-18T10:38:59.205Z,2.10
2022-09-18T10:44:28.042Z,1.95
2022-09-18T10:50:02.249Z,1.40
2022-09-18T10:55:07.519Z,2.00
2022-09-18T11:00:13.848Z,1.70
2022-09-18T11:05:28.033Z,2.30
2022-09-18T11:10:33.044Z,2.58
2022-09-18T11:15:36.913Z,2.20
2022-09-18T11:20:43.710Z,2.05
2022-09-18T11:26:08.464Z,2.40
2022-09-18T11:31:18.489Z,2.30
2022-09-18T11:36:31.740Z,2.22
2022-09-18T11:41:38.676Z,2.10
2022-09-18T11:46:40.659Z,2.30
2022-09-18T11:51:55.649Z,2.03
2022-09-18T11:57:10.527Z,2.05
2022-09-18T12:02:44.669Z,4.97
2022-09-18T12:07:51.315Z,3.58
2022-09-18T12:13:13.599Z,2.38
2022-09-18T12:18:24.740Z,2.65
2022-09-18T12:23:29.083Z,2.70
2022-09-18T12:29:26.550Z,2.25
2022-09-18T12:35:02.747Z,2.13
2022-09-18T12:40:22.717Z,2.50
2022-09-18T12:45:30.520Z,2.63
2022-09-18T12:50:53.784Z,3.15
2022-09-18T12:56:32.144Z,2.40
2022-09-18T13:01:45.938Z,2.10
2022-09-18T13:07:16.027Z,2.40
2022-09-18T13:12:32.134Z,3.50
2022-09-18T13:17:44.140Z,3.05
2022-09-18T13:22:50.873Z,6.30
2022-09-18T13:27:56.475Z,2.92
2022-09-18T13:32:59.740Z,8.88
2022-09-18T13:38:19.967Z,3.40
2022-09-18T13:43:27.685Z,5.25
2022-09-18T13:48:44.766Z,4.55
2022-09-18T13:53:46.875Z,2.13
2022-09-18T13:58:50.111Z,1.88
2022-09-18T14:03:51.912Z,2.30
2022-09-18T14:09:07.873Z,2.80
2022-09-18T14:14:22.647Z,6.15
2022-09-18T14:19:33.142Z,3.00
2022-09-18T14:24:55.759Z,1.98
2022-09-18T14:30:03.494Z,2.22
2022-09-18T14:35:25.674Z,2.25
2022-09-18T14:40:28.909Z,4.00
2022-09-18T14:45:31.792Z,4.90
2022-09-18T14:50:37.878Z,3.03
2022-09-18T14:55:41.974Z,2.60
2022-09-18T15:00:45.343Z,3.55
2022-09-18T15:05:52.023Z,2.30
2022-09-18T15:10:56.482Z,2.75
2022-09-18T15:16:01.476Z,2.60
2022-09-18T15:21:03.476Z,4.15
2022-09-18T15:26:12.452Z,10.00
2022-09-18T15:31:17.653Z,4.50
2022-09-18T15:36:36.161Z,6.40
2022-09-18T15:41:39.513Z,6.53
2022-09-18T15:46:41.379Z,3.00
2022-09-18T15:51:43.459Z,3.28
2022-09-18T15:57:01.499Z,2.85
2022-09-18T16:02:19.560Z,3.25
2022-09-18T16:07:27.063Z,3.05
2022-09-18T16:12:29.883Z,3.17
2022-09-18T16:17:37.213Z,3.60
2022-09-18T16:22:40.857Z,4.60
2022-09-18T16:27:47.549Z,5.07
2022-09-18T16:32:49.487Z,3.58
2022-09-18T16:37:52.602Z,4.70
2022-09-18T16:42:58.227Z,4.70
2022-09-18T16:48:00.822Z,3.85
2022-09-18T16:53:03.169Z,3.47
2022-09-18T16:58:07.059Z,3.90
2022-09-18T17:03:09.074Z,5.65
2022-09-18T17:08:11.198Z,4.10
2022-09-18T17:13:14.214Z,5.90
2022-09-18T17:18:17.207Z,10.13
2022-09-18T17:23:19.027Z,3.15
2022-09-18T17:28:21.012Z,2.90
2022-09-18T17:33:23.200Z,3.38
2022-09-18T17:38:25.127Z,2.53
2022-09-18T17:43:27.975Z,2.83
2022-09-18T17:48:31.218Z,4.25
2022-09-18T17:53:33.697Z,3.30
2022-09-18T17:58:40.001Z,3.05
2022-09-18T18:03:41.877Z,4.68
2022-09-18T18:08:43.915Z,10.63
2022-09-18T18:13:47.673Z,5.95
2022-09-18T18:18:53.519Z,13.75
2022-09-18T18:24:01.211Z,13.82
2022-09-18T18:29:03.678Z,7.78
2022-09-18T18:34:05.437Z,7.80
2022-09-18T18:39:12.081Z,7.50
2022-09-18T18:44:14.439Z,37.92
2022-09-18T18:49:17.960Z,9.95
2022-09-18T18:54:21.751Z,57.45
2022-09-18T18:59:25.515Z,123.15
2022-09-18T19:04:27.743Z,38.28
2022-09-18T19:09:30.516Z,27.88
2022-09-18T19:14:33.439Z,3.80
2022-09-18T19:19:35.431Z,4.10
2022-09-18T19:24:37.155Z,6.35
2022-09-18T19:29:39.466Z,6.63
2022-09-18T19:34:41.310Z,5.28
2022-09-18T19:39:47.242Z,6.32
2022-09-18T19:45:00.410Z,4.72
2022-09-18T19:50:05.343Z,5.97
2022-09-18T19:55:14.928Z,3.50
2022-09-18T20:00:16.906Z,3.70
2022-09-18T20:05:20.823Z,2.78
2022-09-18T20:10:23.792Z,2.70
2022-09-18T20:15:26.064Z,2.65
2022-09-18T20:20:28.331Z,2.72
2022-09-18T20:25:30.087Z,2.88
2022-09-18T20:30:32.047Z,2.58
2022-09-18T20:35:37.395Z,2.83
2022-09-18T20:40:39.385Z,2.20
2022-09-18T20:45:41.224Z,2.67
2022-09-18T20:50:43.964Z,2.88
2022-09-18T20:55:46.630Z,2.38
2022-09-18T21:00:48.486Z,2.63
2022-09-18T21:06:02.710Z,2.88
2022-09-18T21:11:17.530Z,2.17
2022-09-18T21:16:21.624Z,2.38
2022-09-18T21:21:25.244Z,1.98
2022-09-18T21:26:35.940Z,2.10
2022-09-18T21:31:42.181Z,2.10
2022-09-18T21:36:44.845Z,2.30
2022-09-18T21:41:47.518Z,2.28
2022-09-18T21:46:50.187Z,2.20
2022-09-18T21:51:55.554Z,1.80
2022-09-18T21:56:57.562Z,2.78
2022-09-18T22:02:00.846Z,1.73
2022-09-18T22:07:02.996Z,1.73
2022-09-18T22:12:06.792Z,1.67
2022-09-18T22:17:10.269Z,1.88
2022-09-18T22:22:12.059Z,1.85
2022-09-18T22:27:14.041Z,2.08
2022-09-18T22:32:16.087Z,1.92
2022-09-18T22:37:17.973Z,1.80
2022-09-18T22:42:20.051Z,1.88
2022-09-18T22:47:21.881Z,1.95
2022-09-18T22:52:23.667Z,1.80
2022-09-18T22:57:25.398Z,1.23
2022-09-18T23:02:27.167Z,1.00
2022-09-18T23:07:29.338Z,0.30
2022-09-18T23:12:31.054Z,0.65
2022-09-18T23:17:32.804Z,0.43
2022-09-18T23:22:34.527Z,0.52
2022-09-18T23:27:36.254Z,0.40
2022-09-18T23:32:37.994Z,0.65
2022-09-18T23:37:39.810Z,0.17
2022-09-18T23:42:41.646Z,0.32
2022-09-18T23:47:43.376Z,0.30
2022-09-18T23:52:45.148Z,0.40
2022-09-18T23:57:46.874Z,0.40
